createdAt,value
2023-04-14T00:01:54.288Z,66.58
2023-04-14T00:04:20.839Z,66.70
2023-04-14T00:06:47.301Z,67.56
2023-04-14T00:09:13.685Z,67.88
2023-04-14T00:11:40.063Z,68.03
2023-04-14T00:14:06.995Z,68.92
2023-04-14T00:16:33.442Z,69.78
2023-04-14T00:19:00.140Z,70.27
2023-04-14T00:21:26.980Z,70.37
2023-04-14T00:23:53.360Z,70.98
2023-04-14T00:26:19.760Z,71.05
2023-04-14T00:28:46.629Z,71.02
2023-04-14T00:31:15.698Z,70.86
2023-04-14T00:33:42.076Z,71.09
2023-04-14T00:36:08.502Z,71.51
2023-04-14T00:38:34.878Z,71.54
2023-04-14T00:41:01.445Z,71.92
2023-04-14T00:43:27.847Z,72.23
2023-04-14T00:45:54.473Z,72.68
2023-04-14T00:48:21.031Z,72.66
2023-04-14T00:50:47.946Z,73.29
2023-04-14T00:53:14.686Z,73.05
2023-04-14T00:55:41.511Z,72.69
2023-04-14T00:58:08.709Z,74.17
2023-04-14T01:00:36.076Z,73.85
2023-04-14T01:03:02.637Z,73.71
2023-04-14T01:05:29.250Z,73.53
2023-04-14T01:07:55.785Z,73.25
2023-04-14T01:10:29.299Z,72.97
2023-04-14T01:13:20.825Z,73.52
2023-04-14T01:15:50.153Z,73.44
2023-04-14T01:18:38.526Z,74.33
2023-04-14T01:21:19.926Z,74.33
2023-04-14T01:24:25.943Z,74.73
2023-04-14T01:27:04.664Z,74.78
2023-04-14T01:29:50.382Z,74.96
2023-04-14T01:32:21.974Z,74.56
2023-04-14T01:34:56.292Z,75.06
2023-04-14T01:37:31.992Z,75.55
2023-04-14T01:40:11.256Z,76.06
2023-04-14T01:42:40.178Z,76.63
2023-04-14T01:45:11.748Z,76.39
2023-04-14T01:47:41.860Z,76.38
2023-04-14T01:50:11.210Z,76.10
2023-04-14T01:52:39.246Z,75.81
2023-04-14T01:55:07.684Z,75.48
2023-04-14T01:57:36.600Z,75.81
2023-04-14T02:00:04.902Z,75.97
2023-04-14T02:02:42.722Z,75.64
2023-04-14T02:05:09.937Z,76.00
2023-04-14T02:07:37.044Z,75.91
2023-04-14T02:10:06.459Z,75.79
2023-04-14T02:12:34.024Z,76.62
2023-04-14T02:15:01.732Z,76.87
2023-04-14T02:17:30.225Z,76.90
2023-04-14T02:19:59.916Z,76.97
2023-04-14T02:22:26.537Z,77.16
2023-04-14T02:24:55.078Z,77.50
2023-04-14T02:27:33.520Z,77.59
2023-04-14T02:30:08.402Z,77.95
2023-04-14T02:32:38.885Z,77.62
2023-04-14T02:35:12.031Z,78.00
2023-04-14T02:37:43.701Z,77.89
2023-04-14T02:40:17.278Z,78.17
2023-04-14T02:42:48.064Z,78.11
2023-04-14T02:45:21.140Z,78.34
2023-04-14T02:47:54.699Z,78.62
2023-04-14T02:50:22.691Z,78.65
2023-04-14T02:53:03.104Z,78.67
2023-04-14T02:55:34.754Z,79.48
2023-04-14T02:58:01.575Z,80.28
2023-04-14T03:00:31.002Z,80.10
2023-04-14T03:02:59.665Z,79.96
2023-04-14T03:05:26.947Z,80.32
2023-04-14T03:08:04.070Z,80.99
2023-04-14T03:10:32.494Z,80.55
2023-04-14T03:13:01.840Z,81.59
2023-04-14T03:15:29.329Z,80.99
2023-04-14T03:17:57.251Z,81.39
2023-04-14T03:20:26.706Z,81.30
2023-04-14T03:23:05.177Z,81.45
2023-04-14T03:25:40.875Z,81.83
2023-04-14T03:28:15.896Z,81.19
2023-04-14T03:30:47.439Z,81.67
2023-04-14T03:33:19.747Z,81.70
2023-04-14T03:35:47.529Z,81.74
2023-04-14T03:38:16.120Z,81.56
2023-04-14T03:40:47.576Z,81.68
2023-04-14T03:43:22.321Z,82.16
2023-04-14T03:45:53.294Z,81.45
2023-04-14T03:48:21.252Z,81.68
2023-04-14T03:50:52.551Z,81.13
2023-04-14T03:53:21.590Z,81.44
2023-04-14T03:55:50.828Z,81.42
2023-04-14T03:58:18.682Z,81.34
2023-04-14T04:00:47.509Z,81.96
2023-04-14T04:03:15.558Z,81.98
2023-04-14T04:05:43.862Z,82.33
2023-04-14T04:08:11.377Z,82.09
2023-04-14T04:10:38.638Z,82.17
2023-04-14T04:13:17.084Z,82.03
2023-04-14T04:15:47.079Z,82.13
2023-04-14T04:18:16.504Z,82.25
2023-04-14T04:20:46.053Z,82.27
2023-04-14T04:23:16.549Z,83.12
2023-04-14T04:25:43.760Z,82.61
2023-04-14T04:28:24.135Z,83.38
2023-04-14T04:30:52.568Z,83.00
2023-04-14T04:33:19.909Z,83.36
2023-04-14T04:35:47.765Z,84.06
2023-04-14T04:38:14.226Z,83.83
2023-04-14T04:40:44.020Z,83.77
2023-04-14T04:43:19.503Z,84.44
2023-04-14T04:45:58.321Z,83.66
2023-04-14T04:48:25.896Z,84.98
2023-04-14T04:50:52.259Z,84.31
2023-04-14T04:53:18.724Z,83.81
2023-04-14T04:55:45.260Z,83.93
2023-04-14T04:58:11.575Z,83.76
2023-04-14T05:00:37.925Z,84.02
2023-04-14T05:03:04.403Z,84.30
2023-04-14T05:05:35.482Z,84.68
2023-04-14T05:08:02.140Z,85.30
2023-04-14T05:10:28.754Z,84.87
2023-04-14T05:12:55.137Z,84.72
2023-04-14T05:15:21.472Z,84.68
2023-04-14T05:17:47.863Z,84.57
2023-04-14T05:20:14.230Z,84.05
2023-04-14T05:22:40.759Z,84.27
2023-04-14T05:25:07.889Z,84.89
2023-04-14T05:27:34.274Z,85.38
2023-04-14T05:30:00.703Z,85.09
2023-04-14T05:32:29.001Z,84.82
2023-04-14T05:34:56.020Z,85.97
2023-04-14T05:37:22.418Z,85.74
2023-04-14T05:39:48.767Z,85.87
2023-04-14T05:42:15.378Z,86.37
2023-04-14T05:44:41.706Z,86.17
2023-04-14T05:47:08.125Z,86.29
2023-04-14T05:49:36.039Z,86.20
2023-04-14T05:52:02.472Z,86.78
2023-04-14T05:54:28.822Z,86.06
2023-04-14T05:56:56.270Z,86.86
2023-04-14T05:59:22.613Z,86.67
2023-04-14T06:01:49.109Z,87.48
2023-04-14T06:04:15.765Z,87.31
2023-04-14T06:06:42.260Z,86.56
2023-04-14T06:09:08.621Z,86.33
2023-04-14T06:11:34.969Z,86.64
2023-04-14T06:14:02.681Z,86.50
2023-04-14T06:16:29.374Z,85.78
2023-04-14T06:18:55.759Z,85.68
2023-04-14T06:21:22.122Z,85.57
2023-04-14T06:23:48.500Z,84.93
2023-04-14T06:26:14.959Z,84.31
2023-04-14T06:28:43.715Z,83.79
2023-04-14T06:31:10.349Z,83.50
2023-04-14T06:33:36.694Z,83.16
2023-04-14T06:36:03.259Z,82.56
2023-04-14T06:38:29.639Z,80.88
2023-04-14T06:40:56.001Z,80.29
2023-04-14T06:43:22.407Z,79.42
2023-04-14T06:45:50.616Z,78.64
2023-04-14T06:48:17.044Z,77.35
2023-04-14T06:50:44.449Z,75.89
2023-04-14T06:53:11.004Z,75.24
2023-04-14T06:55:41.018Z,74.14
2023-04-14T06:58:07.417Z,74.57
2023-04-14T07:00:33.881Z,72.53
2023-04-14T07:03:00.447Z,71.25
2023-04-14T07:05:27.093Z,71.17
2023-04-14T07:07:53.453Z,71.18
2023-04-14T07:10:19.849Z,71.13
2023-04-14T07:12:46.194Z,70.83
2023-04-14T07:15:14.165Z,70.09
2023-04-14T07:17:40.555Z,69.79
2023-04-14T07:20:07.814Z,70.17
2023-04-14T07:22:34.411Z,68.56
2023-04-14T07:25:00.762Z,67.72
2023-04-14T07:27:28.590Z,67.93
2023-04-14T07:29:54.925Z,67.24
2023-04-14T07:32:21.402Z,66.79
2023-04-14T07:34:47.924Z,66.89
2023-04-14T07:37:16.385Z,66.49
2023-04-14T07:39:42.737Z,64.62
2023-04-14T07:42:09.064Z,63.25
2023-04-14T07:44:35.453Z,63.41
2023-04-14T07:47:01.899Z,63.85
2023-04-14T07:49:28.306Z,63.29
2023-04-14T07:51:54.719Z,63.08
2023-04-14T07:54:21.687Z,62.09
2023-04-14T07:56:48.669Z,61.09
2023-04-14T07:59:15.565Z,59.48
2023-04-14T08:01:42.486Z,59.54
2023-04-14T08:04:09.164Z,59.86
2023-04-14T08:06:35.636Z,59.17
2023-04-14T08:09:02.420Z,59.04
2023-04-14T08:11:29.140Z,58.28
2023-04-14T08:13:55.678Z,57.66
2023-04-14T08:16:22.518Z,57.20
2023-04-14T08:18:49.272Z,58.91
2023-04-14T08:21:16.520Z,56.66
2023-04-14T08:23:42.996Z,55.58
2023-04-14T08:26:09.442Z,55.42
2023-04-14T08:28:36.982Z,54.98
2023-04-14T08:31:03.416Z,55.21
2023-04-14T08:33:29.828Z,53.75
2023-04-14T08:35:59.893Z,51.58
2023-04-14T08:38:27.548Z,53.70
2023-04-14T08:40:56.309Z,52.47
2023-04-14T08:43:23.277Z,51.24
2023-04-14T08:45:51.704Z,51.94
2023-04-14T08:48:20.494Z,52.67
2023-04-14T08:51:02.278Z,51.98
2023-04-14T08:53:31.695Z,51.98
2023-04-14T08:56:02.506Z,51.43
2023-04-14T08:58:29.240Z,50.13
2023-04-14T09:00:55.965Z,49.48
2023-04-14T09:03:27.141Z,50.08
2023-04-14T09:05:54.152Z,50.38
2023-04-14T09:08:21.004Z,49.00
2023-04-14T09:10:47.363Z,48.71
2023-04-14T09:13:16.636Z,47.80
2023-04-14T09:15:43.681Z,48.64
2023-04-14T09:18:11.357Z,45.69
2023-04-14T09:20:40.751Z,45.59
2023-04-14T09:23:11.986Z,45.60
2023-04-14T09:25:39.410Z,44.73
2023-04-14T09:28:05.847Z,44.89
2023-04-14T09:30:32.927Z,43.42
2023-04-14T09:32:59.417Z,45.13
2023-04-14T09:35:49.002Z,42.92
2023-04-14T09:38:30.709Z,42.17
2023-04-14T09:40:57.385Z,44.74
2023-04-14T09:43:25.467Z,42.51
2023-04-14T09:45:51.900Z,41.49
2023-04-14T09:48:19.385Z,43.26
2023-04-14T09:51:22.166Z,44.66
2023-04-14T09:53:48.738Z,44.42
2023-04-14T09:56:15.739Z,44.24
2023-04-14T09:58:43.833Z,42.43
2023-04-14T10:01:17.771Z,42.32
2023-04-14T10:03:46.682Z,43.06
2023-04-14T10:06:13.413Z,40.96
2023-04-14T10:08:41.723Z,41.02
2023-04-14T10:11:21.146Z,42.33
2023-04-14T10:13:49.340Z,39.94
2023-04-14T10:16:16.098Z,40.13
2023-04-14T10:18:43.012Z,40.32
2023-04-14T10:21:10.378Z,40.35
2023-04-14T10:23:39.152Z,41.57
2023-04-14T10:26:07.769Z,42.73
2023-04-14T10:28:40.872Z,41.18
2023-04-14T10:31:13.217Z,41.51
2023-04-14T10:33:39.689Z,43.10
2023-04-14T10:36:06.547Z,43.32
2023-04-14T10:38:40.656Z,43.28
2023-04-14T10:41:07.642Z,42.21
2023-04-14T10:43:36.572Z,42.23
2023-04-14T10:46:04.678Z,42.50
2023-04-14T10:48:41.296Z,41.73
2023-04-14T10:51:09.741Z,42.41
2023-04-14T10:53:48.514Z,41.01
2023-04-14T10:56:14.915Z,41.12
2023-04-14T10:58:42.025Z,42.17
2023-04-14T11:01:25.897Z,40.39
2023-04-14T11:03:54.780Z,39.45
2023-04-14T11:06:48.378Z,40.37
2023-04-14T11:09:24.302Z,36.94
2023-04-14T11:11:51.563Z,37.90
2023-04-14T11:14:28.138Z,38.70
2023-04-14T11:17:05.281Z,36.27
2023-04-14T11:19:32.996Z,37.66
2023-04-14T11:21:59.374Z,36.45
2023-04-14T11:24:26.567Z,38.78
2023-04-14T11:26:54.617Z,34.13
2023-04-14T11:29:21.913Z,38.19
2023-04-14T11:32:05.340Z,37.18
2023-04-14T11:34:32.828Z,36.82
2023-04-14T11:37:02.870Z,39.32
2023-04-14T11:39:29.851Z,35.59
2023-04-14T11:41:59.980Z,35.43
2023-04-14T11:44:26.354Z,36.78
2023-04-14T11:46:53.659Z,34.33
2023-04-14T11:49:31.972Z,34.67
2023-04-14T11:52:04.611Z,34.03
2023-04-14T11:54:39.840Z,34.36
2023-04-14T11:57:13.538Z,34.42
2023-04-14T11:59:47.480Z,34.28
2023-04-14T12:02:22.020Z,34.75
2023-04-14T12:04:52.021Z,34.16
2023-04-14T12:07:20.280Z,33.98
2023-04-14T12:09:48.860Z,32.80
2023-04-14T12:12:17.308Z,32.46
2023-04-14T12:14:46.033Z,33.87
2023-04-14T12:17:15.149Z,33.82
2023-04-14T12:19:42.279Z,32.53
2023-04-14T12:22:09.489Z,32.37
2023-04-14T12:24:43.349Z,34.41
2023-04-14T12:27:10.052Z,33.51
2023-04-14T12:29:37.113Z,34.17
2023-04-14T12:32:13.636Z,34.63
2023-04-14T12:34:40.408Z,31.71
2023-04-14T12:37:08.461Z,31.25
2023-04-14T12:39:50.766Z,32.34
2023-04-14T12:42:18.088Z,30.10
2023-04-14T12:44:59.211Z,29.55
2023-04-14T12:47:29.276Z,31.00
2023-04-14T12:49:56.857Z,31.29
2023-04-14T12:52:39.827Z,30.59
2023-04-14T12:55:07.934Z,29.89
2023-04-14T12:57:34.953Z,30.02
2023-04-14T13:00:02.078Z,29.86
2023-04-14T13:02:30.207Z,30.74
2023-04-14T13:04:57.000Z,31.00
2023-04-14T13:07:23.575Z,31.35
2023-04-14T13:09:51.493Z,30.95
2023-04-14T13:12:18.486Z,31.75
2023-04-14T13:14:44.908Z,28.13
2023-04-14T13:17:11.293Z,29.22
2023-04-14T13:19:38.030Z,31.10
2023-04-14T13:22:04.443Z,30.30
2023-04-14T13:24:30.826Z,30.60
2023-04-14T13:26:57.317Z,32.64
2023-04-14T13:29:23.653Z,29.79
2023-04-14T13:31:50.022Z,31.96
2023-04-14T13:34:16.571Z,32.05
2023-04-14T13:36:42.886Z,30.86
2023-04-14T13:39:09.274Z,30.67
2023-04-14T13:41:35.617Z,29.92
2023-04-14T13:44:04.166Z,30.92
2023-04-14T13:46:34.457Z,30.58
2023-04-14T13:49:06.922Z,31.08
2023-04-14T13:51:33.516Z,30.17
2023-04-14T13:53:59.944Z,30.38
2023-04-14T13:56:27.123Z,30.17
2023-04-14T13:58:54.252Z,33.14
2023-04-14T14:01:21.056Z,31.76
2023-04-14T14:03:47.890Z,32.00
2023-04-14T14:06:14.534Z,32.94
2023-04-14T14:08:42.137Z,34.19
2023-04-14T14:11:09.513Z,33.97
2023-04-14T14:13:36.946Z,33.75
2023-04-14T14:16:03.757Z,33.97
2023-04-14T14:18:30.180Z,34.20
2023-04-14T14:20:56.572Z,33.96
2023-04-14T14:23:23.267Z,33.17
2023-04-14T14:25:50.140Z,34.66
2023-04-14T14:28:17.139Z,34.44
2023-04-14T14:30:43.688Z,34.57
2023-04-14T14:33:10.653Z,34.20
2023-04-14T14:35:37.718Z,33.23
2023-04-14T14:38:04.067Z,34.77
2023-04-14T14:40:30.821Z,35.89
2023-04-14T14:42:57.339Z,34.45
2023-04-14T14:45:30.587Z,34.99
2023-04-14T14:47:58.019Z,34.59
2023-04-14T14:50:24.398Z,34.70
2023-04-14T14:52:50.721Z,35.72
2023-04-14T14:55:17.201Z,34.81
2023-04-14T14:57:43.536Z,35.06
2023-04-14T15:00:10.851Z,34.69
2023-04-14T15:02:38.560Z,34.64
2023-04-14T15:05:07.111Z,34.80
2023-04-14T15:07:33.817Z,35.80
2023-04-14T15:10:01.457Z,34.68
2023-04-14T15:12:27.824Z,35.26
2023-04-14T15:14:54.152Z,35.17
2023-04-14T15:17:20.488Z,35.28
2023-04-14T15:19:47.087Z,35.96
2023-04-14T15:22:14.789Z,35.28
2023-04-14T15:24:41.137Z,34.88
2023-04-14T15:27:07.487Z,34.26
2023-04-14T15:29:33.838Z,33.82
2023-04-14T15:32:00.376Z,32.66
2023-04-14T15:34:27.667Z,33.40
2023-04-14T15:36:54.111Z,33.40
2023-04-14T15:39:20.774Z,33.65
2023-04-14T15:41:48.980Z,33.60
2023-04-14T15:44:15.385Z,34.49
2023-04-14T15:46:41.710Z,34.18
2023-04-14T15:49:08.029Z,34.45
2023-04-14T15:51:34.525Z,34.43
2023-04-14T15:54:02.043Z,33.37
2023-04-14T15:56:28.963Z,33.51
2023-04-14T15:58:55.552Z,33.25
2023-04-14T16:01:22.075Z,33.95
2023-04-14T16:03:50.535Z,34.90
2023-04-14T16:06:18.891Z,34.51
2023-04-14T16:08:45.314Z,34.11
2023-04-14T16:11:16.086Z,35.85
2023-04-14T16:13:44.052Z,36.75
2023-04-14T16:16:13.020Z,37.71
2023-04-14T16:18:39.442Z,37.41
2023-04-14T16:21:05.920Z,37.93
2023-04-14T16:23:32.259Z,38.61
2023-04-14T16:25:58.638Z,38.73
2023-04-14T16:28:25.681Z,37.65
2023-04-14T16:30:52.081Z,37.09
2023-04-14T16:33:18.515Z,36.77
2023-04-14T16:35:44.913Z,37.57
2023-04-14T16:38:11.276Z,37.24
2023-04-14T16:40:37.897Z,38.34
2023-04-14T16:43:04.396Z,37.34
2023-04-14T16:45:31.940Z,38.59
2023-04-14T16:47:58.575Z,38.73
2023-04-14T16:50:24.961Z,38.71
2023-04-14T16:52:52.271Z,38.59
2023-04-14T16:55:18.787Z,38.96
2023-04-14T16:57:45.177Z,39.17
2023-04-14T17:00:15.064Z,39.84
2023-04-14T17:02:41.813Z,39.24
2023-04-14T17:05:10.384Z,40.13
2023-04-14T17:07:37.040Z,39.98
2023-04-14T17:10:03.535Z,39.60
2023-04-14T17:12:29.896Z,39.69
2023-04-14T17:14:56.291Z,40.23
2023-04-14T17:17:22.775Z,41.00
2023-04-14T17:19:49.338Z,41.48
2023-04-14T17:22:15.720Z,40.81
2023-04-14T17:24:42.743Z,41.16
2023-04-14T17:27:09.124Z,41.00
2023-04-14T17:29:35.675Z,40.88
2023-04-14T17:32:02.285Z,40.53
2023-04-14T17:34:29.549Z,41.43
2023-04-14T17:36:56.448Z,41.19
2023-04-14T17:39:26.569Z,41.13
2023-04-14T17:42:00.488Z,41.09
2023-04-14T17:44:32.342Z,40.44
2023-04-14T17:47:03.367Z,40.63
2023-04-14T17:49:30.640Z,41.18
2023-04-14T17:51:57.258Z,40.86
2023-04-14T17:54:23.708Z,40.08
2023-04-14T17:56:50.343Z,40.81
2023-04-14T17:59:17.631Z,43.08
2023-04-14T18:01:44.029Z,44.76
2023-04-14T18:04:10.824Z,45.52
2023-04-14T18:06:37.284Z,46.69
2023-04-14T18:09:03.917Z,46.61
2023-04-14T18:11:30.343Z,47.43
2023-04-14T18:13:58.014Z,47.39
2023-04-14T18:16:24.932Z,47.56
2023-04-14T18:18:51.488Z,48.55
2023-04-14T18:21:17.847Z,48.25
2023-04-14T18:23:44.189Z,49.62
2023-04-14T18:28:39.985Z,49.95
2023-04-14T18:31:06.529Z,49.94
2023-04-14T18:33:33.146Z,49.83
2023-04-14T18:36:00.501Z,49.33
2023-04-14T18:38:28.213Z,49.62
2023-04-14T18:41:01.110Z,50.02
2023-04-14T18:43:27.435Z,49.75
2023-04-14T18:45:53.806Z,50.13
2023-04-14T18:48:20.282Z,49.06
2023-04-14T18:50:46.663Z,50.19
2023-04-14T18:53:13.215Z,49.88
2023-04-14T18:55:44.987Z,49.36
2023-04-14T18:58:12.653Z,49.90
2023-04-14T19:00:39.503Z,50.67
2023-04-14T19:03:07.018Z,51.10
2023-04-14T19:05:35.057Z,50.93
2023-04-14T19:08:02.315Z,50.29
2023-04-14T19:10:29.207Z,50.75
2023-04-14T19:12:55.596Z,50.99
2023-04-14T19:15:21.911Z,50.41
2023-04-14T19:17:48.463Z,50.52
2023-04-14T19:20:15.256Z,50.80
2023-04-14T19:22:41.738Z,51.21
2023-04-14T19:25:08.551Z,51.38
2023-04-14T19:27:35.993Z,51.38
2023-04-14T19:30:04.020Z,51.08
2023-04-14T19:32:30.476Z,51.57
2023-04-14T19:34:57.394Z,51.59
2023-04-14T19:37:23.723Z,51.57
2023-04-14T19:39:50.338Z,51.56
2023-04-14T19:42:16.939Z,52.17
2023-04-14T19:44:43.319Z,52.12
2023-04-14T19:47:09.638Z,52.18
2023-04-14T19:49:36.083Z,52.35
2023-04-14T19:52:04.578Z,52.90
2023-04-14T19:54:31.265Z,53.89
2023-04-14T19:56:57.581Z,54.37
2023-04-14T19:59:23.916Z,54.64
2023-04-14T20:01:51.397Z,55.19
2023-04-14T20:04:18.401Z,55.79
2023-04-14T20:06:44.782Z,56.05
2023-04-14T20:09:11.102Z,56.26
2023-04-14T20:11:37.529Z,56.59
2023-04-14T20:14:04.363Z,56.61
2023-04-14T20:16:30.796Z,57.19
2023-04-14T20:18:57.408Z,57.38
2023-04-14T20:21:24.055Z,57.52
2023-04-14T20:23:50.383Z,57.83
2023-04-14T20:26:17.155Z,58.31
2023-04-14T20:28:43.673Z,58.77
2023-04-14T20:31:10.385Z,58.61
2023-04-14T20:33:36.897Z,59.50
2023-04-14T20:36:03.692Z,60.21
2023-04-14T20:38:30.149Z,60.69
2023-04-14T20:40:56.586Z,60.75
2023-04-14T20:43:23.106Z,61.06
2023-04-14T20:45:49.785Z,60.91
2023-04-14T20:48:16.577Z,60.63
2023-04-14T20:50:44.281Z,61.44
2023-04-14T20:53:10.712Z,61.91
2023-04-14T20:55:37.182Z,61.91
2023-04-14T20:58:03.912Z,61.79
2023-04-14T21:00:32.509Z,62.33
2023-04-14T21:03:00.902Z,62.15
2023-04-14T21:05:27.366Z,61.88
2023-04-14T21:07:53.758Z,61.97
2023-04-14T21:10:20.626Z,62.30
2023-04-14T21:15:25.022Z,62.41
2023-04-14T21:15:54.064Z,62.64
2023-04-14T21:18:19.896Z,62.16
2023-04-14T21:20:46.210Z,62.38
2023-04-14T21:23:12.590Z,62.52
2023-04-14T21:25:39.004Z,63.33
2023-04-14T21:28:05.551Z,63.29
2023-04-14T21:30:32.125Z,63.84
2023-04-14T21:32:59.089Z,63.05
2023-04-14T21:35:25.859Z,62.58
2023-04-14T21:37:52.273Z,61.49
2023-04-14T21:40:19.018Z,61.15
2023-04-14T21:42:45.732Z,61.28
2023-04-14T21:45:12.081Z,60.68
2023-04-14T21:47:38.486Z,60.36
2023-04-14T21:50:07.129Z,60.64
2023-04-14T21:52:33.488Z,60.43
2023-04-14T21:54:59.902Z,60.60
2023-04-14T21:57:44.523Z,60.46
2023-04-14T22:00:15.416Z,60.57
2023-04-14T22:02:42.902Z,61.37
2023-04-14T22:05:09.885Z,61.14
2023-04-14T22:07:36.380Z,60.85
2023-04-14T22:10:03.407Z,61.45
2023-04-14T22:12:35.674Z,61.58
2023-04-14T22:15:04.132Z,61.73
2023-04-14T22:17:31.045Z,61.88
2023-04-14T22:19:57.616Z,61.60
2023-04-14T22:22:24.283Z,61.92
2023-04-14T22:24:51.615Z,61.72
2023-04-14T22:27:17.967Z,61.57
2023-04-14T22:29:44.301Z,62.14
2023-04-14T22:32:10.662Z,61.97
2023-04-14T22:34:37.330Z,62.40
2023-04-14T22:37:03.737Z,62.19
2023-04-14T22:39:30.311Z,62.60
2023-04-14T22:41:56.618Z,62.84
2023-04-14T22:44:22.959Z,62.66
2023-04-14T22:46:49.259Z,62.32
2023-04-14T22:49:15.789Z,62.96
2023-04-14T22:51:42.097Z,62.63
2023-04-14T22:54:08.936Z,62.97
2023-04-14T22:56:36.974Z,62.79
2023-04-14T22:59:03.532Z,63.41
2023-04-14T23:01:30.322Z,63.34
2023-04-14T23:03:56.753Z,63.99
2023-04-14T23:06:24.029Z,63.42
2023-04-14T23:08:50.899Z,64.25
2023-04-14T23:11:20.760Z,64.46
2023-04-14T23:13:48.813Z,64.19
2023-04-14T23:16:19.583Z,64.69
2023-04-14T23:18:52.903Z,64.59
2023-04-14T23:21:22.938Z,64.50
2023-04-14T23:23:49.884Z,64.48
2023-04-14T23:26:17.225Z,64.71
2023-04-14T23:28:43.594Z,65.65
2023-04-14T23:31:09.984Z,65.56
2023-04-14T23:33:36.457Z,66.09
2023-04-14T23:36:02.827Z,66.19
2023-04-14T23:38:29.187Z,66.47
2023-04-14T23:40:58.754Z,66.05
2023-04-14T23:43:25.930Z,66.54
2023-04-14T23:45:52.490Z,66.96
2023-04-14T23:48:18.870Z,67.44
2023-04-14T23:51:00.628Z,67.35
2023-04-14T23:53:31.564Z,67.70
2023-04-14T23:55:58.139Z,68.00
2023-04-14T23:58:26.897Z,67.58
